Skip Navigation Links Skip Navigation Links

Current Weather

North Las Vegas, Las Vegas, Nev.

For information only: do not use for flight planning or navigation.
Latest weather
Observation time Thursday, November 21, 2019 1:53 PM PST
Local time Thursday, November 21, 2019 2:30 PM PST
Flight conditions Visual Meteorological Conditions
Winds
Wind direction Northeast (40°)
Wind speed 8 mph
Visibility 10 mi.
Sky condition
Ceiling 9,500 ft. broken clouds
Cloud layer scattered clouds 8,000 ft.
Cloud layer broken clouds 9,500 ft.
Temperature 50°F
Dewpoint 42°F
Altimeter 29.91 in.Hg
Derived measurements
Relative humidity 74%
Wind chill 47°F
Density altitude 1753 ft.
Sea-level pressure 29.96 in.Hg
Remarks
Automated weather observing station with precipitation discriminator.
METAR KVGT 212153Z 04007KT 10SM SCT080 BKN095 10/06 A2991 RMK AO2 SLP146 T01000056

Settings

Location code

InnerDrive.Weather 4.0.6770.0 Release CLR 4.0.30319.42000
Copyright ©2018 Inner Drive Technology. All rights reserved. Portions Copyright ©1986-2018 David Braverman.

Find weather

Site navigation


Skip Navigation Links

Place info

Page info

PayPal - The safer, easier way to pay online!

Return home.

Copyright ©2019 Inner Drive Technology. Purveyors of fine, hand-crafted computer software. Page printed 2019-11-21T22:30:27 UTC.